Pagina principală
METAR-TAF:

METAR-TAF

Aeroporturi :

Brown Field Municipal Airport

San Diego, California, Statele Unite ale Americii

Latitudine: 32-34-31N, longitudine: 116-59-35W, elevație: 164 m

Observații meteo curente

Raportul a fost făcut în urmă cu 1 oră și 20 de minute, la 21:53 UTC
Vânt 10 kt de la Vest
Temperatură 24°C
Umiditate 65%
Presiune 1015 hPa
Vizibilitate: 16.1 km
Cer senin

METAR: KSDM 182153Z 27010KT 10SM CLR 24/17 A2998 RMK AO2 SLP146 T02440167

Ora: 16:13 (23:13 UTC)


TAF: lipsă

Observații și prognoze meteo pentru peste 4.000 de aeroporturi (rapoarte METAR și TAF).

Stațiile disponibile sunt reprezentate pe hartă prin puncte galbene și roșii.

Țineți indicatorul mouse-ului pe punctul dorit pentru a vedea denumirea stației.

Apoi, faceți clic pentru a vedea observațiile și prognozele meteorologice.

Pentru a schimba harta: Pentru mărire, faceți clic pe butoanele verzi cu cruce neagră; pentru micșorare, pe butonul verde cu o liniuță; pentru hărți învecinate, pe săgețile verzi.


METAR-TAF: